Time;durP1;ratioP1;P1;durP2;ratioP2;P2;SDS_P1;SDS_P2;PMS_P1;PMS_P2;Temp;Humidity;BMP_temperature;BMP_pressure;BME280_temperature;BME280_humidity;BME280_pressure;Samples;Min_cycle;Max_cycle;Signal;HPM_P1;HPM_P2
2020/12/23 00:00:58;;;;;;;1.00;0.68;;;11.50;94.90;;;;;;5053979;28;20033;-75
2020/12/23 00:03:24;;;;;;;1.67;0.80;;;11.40;94.90;;;;;;5053944;28;20036;-80
2020/12/23 00:05:50;;;;;;;1.35;0.57;;;11.50;94.90;;;;;;5054012;28;20116;-78
2020/12/23 00:08:15;;;;;;;0.60;0.60;;;11.50;94.90;;;;;;5054269;28;20128;-78
2020/12/23 00:10:41;;;;;;;0.93;0.70;;;11.50;94.90;;;;;;5033548;28;20040;-77
2020/12/23 00:13:07;;;;;;;0.50;0.50;;;11.50;94.90;;;;;;5034330;28;20021;-78
2020/12/23 00:15:32;;;;;;;2.22;0.70;;;11.50;94.90;;;;;;5015502;28;20112;-78
2020/12/23 00:17:58;;;;;;;0.98;0.63;;;11.50;94.90;;;;;;5033916;28;20025;-78
2020/12/23 00:20:24;;;;;;;0.52;0.52;;;11.50;94.80;;;;;;5033852;28;20032;-80
2020/12/23 00:22:49;;;;;;;1.23;0.80;;;11.50;94.90;;;;;;5032986;28;20033;-80
2020/12/23 00:25:15;;;;;;;2.10;0.85;;;11.60;94.90;;;;;;5016216;28;20033;-79
2020/12/23 00:27:40;;;;;;;2.67;0.85;;;11.60;94.90;;;;;;5016081;28;20030;-79
2020/12/23 00:30:06;;;;;;;1.67;0.75;;;11.60;94.90;;;;;;5015994;28;20393;-79
2020/12/23 00:32:32;;;;;;;1.42;0.60;;;11.60;94.90;;;;;;5015394;28;20556;-77
2020/12/23 00:34:58;;;;;;;2.30;1.00;;;11.50;94.80;;;;;;5015709;28;20075;-79
2020/12/23 00:37:23;;;;;;;0.90;0.60;;;11.60;94.90;;;;;;5033728;28;20090;-79
2020/12/23 00:39:49;;;;;;;0.43;0.38;;;11.60;94.80;;;;;;5015377;28;20026;-79
2020/12/23 00:42:15;;;;;;;0.85;0.40;;;11.60;94.80;;;;;;5015618;28;20025;-73
2020/12/23 00:44:40;;;;;;;0.80;0.70;;;11.60;94.80;;;;;;5032949;28;20563;-78
2020/12/23 00:47:06;;;;;;;0.63;0.40;;;11.60;94.80;;;;;;5033484;28;20171;-79
2020/12/23 00:49:32;;;;;;;1.45;0.98;;;11.60;94.80;;;;;;5032545;28;20021;-77
2020/12/23 00:51:57;;;;;;;1.30;1.00;;;11.60;94.80;;;;;;5015432;28;20108;-79
2020/12/23 00:54:23;;;;;;;1.20;0.65;;;11.60;94.80;;;;;;5015380;28;20052;-76
2020/12/23 00:56:49;;;;;;;1.00;0.50;;;11.60;94.80;;;;;;5014874;28;20069;-78
2020/12/23 00:59:14;;;;;;;0.88;0.63;;;11.60;94.80;;;;;;5015434;28;20029;-78
2020/12/23 01:01:40;;;;;;;2.20;0.63;;;11.60;94.80;;;;;;5032599;28;20032;-77
2020/12/23 01:04:05;;;;;;;0.90;0.60;;;11.60;94.80;;;;;;5033393;28;20033;-81
2020/12/23 01:06:31;;;;;;;0.40;0.40;;;11.60;94.80;;;;;;5014598;28;20419;-79
2020/12/23 01:08:57;;;;;;;0.63;0.63;;;11.60;94.80;;;;;;5015451;28;20029;-77
2020/12/23 01:11:22;;;;;;;0.70;0.47;;;11.60;94.80;;;;;;5032977;28;20368;-78
2020/12/23 01:13:48;;;;;;;0.60;0.40;;;11.60;94.80;;;;;;5014506;28;20025;-79
2020/12/23 01:16:19;;;;;;;1.33;1.00;;;11.60;94.70;;;;;;5032674;28;20026;-77
2020/12/23 01:18:45;;;;;;;1.63;0.80;;;11.60;94.80;;;;;;5014303;28;20378;-77
2020/12/23 01:21:11;;;;;;;0.80;0.68;;;11.60;94.80;;;;;;5032856;28;20026;-76
2020/12/23 01:23:36;;;;;;;1.10;0.57;;;11.60;94.70;;;;;;5014374;28;20040;-77
2020/12/23 01:26:02;;;;;;;1.88;0.60;;;11.60;94.80;;;;;;5032388;28;20116;-77
2020/12/23 01:28:28;;;;;;;0.50;0.50;;;11.60;94.80;;;;;;5032206;28;20071;-75
2020/12/23 01:30:54;;;;;;;1.88;0.98;;;11.70;94.80;;;;;;5031263;28;20028;-77
2020/12/23 01:33:19;;;;;;;0.55;0.55;;;11.60;94.80;;;;;;5014761;28;20120;-79
2020/12/23 01:35:45;;;;;;;0.65;0.65;;;11.70;94.80;;;;;;5031728;28;20414;-78
2020/12/23 01:38:11;;;;;;;0.82;0.40;;;11.70;94.70;;;;;;5014699;28;20430;-75
2020/12/23 01:40:37;;;;;;;2.08;0.73;;;11.70;94.70;;;;;;5032153;28;20021;-78
2020/12/23 01:43:05;;;;;;;0.57;0.40;;;11.60;94.70;;;;;;5014455;28;20025;-78
2020/12/23 01:45:31;;;;;;;0.95;0.52;;;11.60;94.70;;;;;;5032152;28;20041;-78
2020/12/23 01:47:57;;;;;;;1.45;0.68;;;11.60;94.70;;;;;;5013944;28;20025;-79
2020/12/23 01:50:23;;;;;;;1.50;0.65;;;11.60;94.70;;;;;;5032331;28;20021;-77
2020/12/23 01:52:53;;;;;;;1.58;0.60;;;11.60;94.70;;;;;;5031631;28;20071;-76
2020/12/23 01:55:19;;;;;;;1.75;0.50;;;11.70;94.70;;;;;;5032255;28;20030;-76
2020/12/23 01:57:45;;;;;;;0.57;0.50;;;11.70;94.70;;;;;;5013935;28;20029;-77
2020/12/23 02:00:10;;;;;;;3.10;1.63;;;11.60;94.70;;;;;;5032068;28;20117;-74
2020/12/23 02:02:37;;;;;;;1.58;0.80;;;11.70;94.70;;;;;;5031157;28;20017;-73
2020/12/23 02:05:05;;;;;;;1.45;0.77;;;11.70;94.70;;;;;;5031899;28;20537;-75
2020/12/23 02:07:32;;;;;;;1.98;0.70;;;11.70;94.70;;;;;;5031595;28;20053;-77
2020/12/23 02:10:00;;;;;;;0.70;0.68;;;11.70;94.70;;;;;;5013693;28;20017;-79
2020/12/23 02:12:26;;;;;;;1.70;0.60;;;11.70;94.70;;;;;;5031890;28;20026;-77
2020/12/23 02:14:54;;;;;;;1.00;0.52;;;11.70;94.70;;;;;;5031601;28;20026;-77
2020/12/23 02:17:21;;;;;;;1.40;0.82;;;11.70;94.70;;;;;;5031954;28;20446;-78
2020/12/23 02:19:49;;;;;;;0.75;0.60;;;11.70;94.70;;;;;;5013574;28;20044;-78
2020/12/23 02:22:30;;;;;;;1.02;0.90;;;11.70;94.70;;;;;;5031828;28;20021;-78
2020/12/23 02:24:57;;;;;;;1.23;0.80;;;11.70;94.70;;;;;;5031093;28;20029;-79
2020/12/23 02:27:24;;;;;;;1.20;0.73;;;11.70;94.80;;;;;;5014203;28;20017;-78
2020/12/23 02:29:53;;;;;;;2.25;0.80;;;11.70;94.70;;;;;;5013388;28;20022;-77
2020/12/23 02:32:19;;;;;;;1.85;0.60;;;11.70;94.70;;;;;;5014186;28;20071;-77
2020/12/23 02:34:46;;;;;;;3.78;0.70;;;11.70;94.70;;;;;;5031031;28;20105;-78
2020/12/23 02:37:12;;;;;;;1.08;0.60;;;11.70;94.70;;;;;;5031677;28;20026;-78
2020/12/23 02:39:39;;;;;;;0.75;0.60;;;11.70;94.70;;;;;;5031223;28;20024;-82
2020/12/23 02:42:07;;;;;;;0.65;0.50;;;11.70;94.70;;;;;;5034189;28;20080;-77
2020/12/23 02:44:33;;;;;;;1.88;0.80;;;11.70;94.70;;;;;;5035648;28;20057;-78
2020/12/23 02:47:10;;;;;;;1.10;0.80;;;11.70;94.70;;;;;;5017434;28;20474;-78
2020/12/23 02:49:37;;;;;;;1.20;0.73;;;11.70;94.70;;;;;;5035449;28;20040;-78
2020/12/23 02:52:03;;;;;;;2.28;0.70;;;11.70;94.70;;;;;;5017553;28;20370;-78
2020/12/23 02:54:29;;;;;;;0.55;0.55;;;11.70;94.70;;;;;;5035391;28;20041;-79
2020/12/23 02:56:54;;;;;;;0.95;0.70;;;11.70;94.70;;;;;;5035089;28;20457;-79
2020/12/23 02:59:20;;;;;;;1.33;0.80;;;11.70;94.70;;;;;;5035217;28;20124;-79
2020/12/23 03:01:46;;;;;;;1.20;0.68;;;11.70;94.70;;;;;;5017104;28;20472;-79
2020/12/23 03:04:11;;;;;;;1.63;0.50;;;11.70;94.70;;;;;;5035656;28;20112;-78
2020/12/23 03:06:37;;;;;;;4.53;1.23;;;11.70;94.70;;;;;;5022015;28;20037;-78
2020/12/23 03:09:05;;;;;;;0.75;0.60;;;11.70;94.70;;;;;;5054773;28;20485;-77
2020/12/23 03:11:30;;;;;;;1.38;0.75;;;11.70;94.70;;;;;;5055192;28;20017;-77
2020/12/23 03:13:56;;;;;;;1.77;0.70;;;11.70;94.70;;;;;;5054415;28;20036;-77
2020/12/23 03:16:22;;;;;;;1.42;0.82;;;11.70;94.70;;;;;;5054797;28;20027;-77
2020/12/23 03:18:47;;;;;;;0.43;0.40;;;11.70;94.70;;;;;;5053107;28;20171;-77
2020/12/23 03:21:13;;;;;;;0.90;0.47;;;11.70;94.60;;;;;;5055056;28;20385;-77
2020/12/23 03:23:39;;;;;;;0.90;0.40;;;11.70;94.60;;;;;;5054929;28;20032;-76
2020/12/23 03:26:04;;;;;;;2.25;0.93;;;11.70;94.70;;;;;;5052643;28;20033;-77
2020/12/23 03:28:31;;;;;;;1.02;0.50;;;11.70;94.70;;;;;;5053428;28;20066;-76
2020/12/23 03:30:57;;;;;;;1.52;0.50;;;11.80;94.70;;;;;;5054364;28;20032;-77
2020/12/23 03:33:22;;;;;;;0.88;0.55;;;11.80;94.60;;;;;;5054614;28;20025;-77
2020/12/23 03:35:48;;;;;;;1.45;0.60;;;11.70;94.60;;;;;;5052809;28;20027;-77
2020/12/23 03:38:14;;;;;;;1.75;0.45;;;11.70;94.60;;;;;;5054708;28;20051;-77
2020/12/23 03:40:39;;;;;;;1.08;0.50;;;11.70;94.60;;;;;;5054511;28;20021;-77
2020/12/23 03:43:05;;;;;;;1.40;0.73;;;11.70;94.60;;;;;;5052478;28;20040;-77
2020/12/23 03:45:31;;;;;;;0.90;0.75;;;11.70;94.60;;;;;;5053199;28;20025;-77
2020/12/23 03:47:57;;;;;;;1.17;0.55;;;11.80;94.60;;;;;;5052752;28;20021;-77
2020/12/23 03:50:23;;;;;;;0.75;0.50;;;11.80;94.70;;;;;;5054339;28;20025;-76
2020/12/23 03:52:49;;;;;;;0.80;0.60;;;11.80;94.70;;;;;;5051772;28;20070;-77
2020/12/23 03:55:14;;;;;;;1.35;0.68;;;11.80;94.70;;;;;;5054477;28;20163;-76
2020/12/23 03:57:40;;;;;;;3.50;1.00;;;11.80;94.70;;;;;;5054508;28;20071;-76
2020/12/23 04:00:08;;;;;;;4.53;0.77;;;11.80;94.70;;;;;;5053535;28;20409;-76
2020/12/23 04:02:34;;;;;;;1.45;0.85;;;11.80;94.70;;;;;;5054373;28;20024;-76
2020/12/23 04:05:00;;;;;;;1.58;0.50;;;11.80;94.70;;;;;;5052153;28;20425;-76
2020/12/23 04:07:27;;;;;;;1.17;0.65;;;11.80;94.70;;;;;;5043082;28;20049;-76
2020/12/23 04:09:52;;;;;;;2.88;0.95;;;11.80;94.70;;;;;;5015674;28;20018;-76
2020/12/23 04:12:18;;;;;;;2.30;1.13;;;11.80;94.70;;;;;;5016195;28;20454;-76
2020/12/23 04:14:44;;;;;;;2.25;0.65;;;11.80;94.70;;;;;;5034227;28;20077;-76
2020/12/23 04:17:10;;;;;;;1.55;0.68;;;11.80;94.70;;;;;;5016333;28;20031;-76
2020/12/23 04:19:36;;;;;;;0.98;0.60;;;11.80;94.60;;;;;;5016419;28;20018;-77
2020/12/23 04:22:02;;;;;;;1.40;0.70;;;11.80;94.60;;;;;;5033385;28;20041;-77
2020/12/23 04:24:27;;;;;;;1.77;0.80;;;11.90;94.70;;;;;;5015910;28;20041;-76
2020/12/23 04:26:53;;;;;;;0.63;0.55;;;11.80;94.70;;;;;;5032997;28;20034;-77
2020/12/23 04:29:18;;;;;;;1.02;0.77;;;11.90;94.70;;;;;;5033371;28;20026;-76
2020/12/23 04:31:44;;;;;;;1.38;0.60;;;11.90;95.00;;;;;;5015969;28;20089;-75
2020/12/23 04:34:10;;;;;;;4.05;0.70;;;11.90;94.70;;;;;;5032941;28;20037;-76
2020/12/23 04:36:35;;;;;;;1.52;0.85;;;11.90;94.70;;;;;;5015747;28;20029;-75
2020/12/23 04:39:01;;;;;;;0.40;0.40;;;11.90;94.70;;;;;;5014760;28;20026;-75
2020/12/23 04:41:27;;;;;;;0.68;0.40;;;11.80;94.70;;;;;;5033134;28;20025;-75
2020/12/23 04:43:53;;;;;;;1.20;0.47;;;11.80;94.70;;;;;;5032510;28;20473;-76
2020/12/23 04:46:23;;;;;;;2.10;0.43;;;11.80;94.70;;;;;;5033203;28;20029;-76
2020/12/23 04:48:57;;;;;;;1.17;0.40;;;11.90;94.70;;;;;;5032948;28;20032;-77
2020/12/23 04:51:30;;;;;;;2.28;0.60;;;11.90;94.70;;;;;;5015549;28;20030;-75
2020/12/23 04:53:56;;;;;;;2.75;0.70;;;11.90;94.70;;;;;;5032801;28;20083;-76
2020/12/23 04:56:23;;;;;;;1.60;0.80;;;11.90;94.70;;;;;;5033174;28;20021;-75
2020/12/23 04:58:50;;;;;;;1.27;0.57;;;11.90;94.80;;;;;;5032416;28;20048;-79
2020/12/23 05:01:15;;;;;;;2.78;0.68;;;11.90;94.80;;;;;;5015250;28;20069;-75
2020/12/23 05:03:41;;;;;;;1.25;0.50;;;11.90;94.80;;;;;;5033251;28;20036;-75
2020/12/23 05:06:07;;;;;;;1.10;0.52;;;11.90;94.80;;;;;;5031571;28;20113;-75
2020/12/23 05:08:34;;;;;;;1.10;0.63;;;11.80;94.80;;;;;;5033073;28;20056;-75
2020/12/23 05:11:06;;;;;;;2.38;0.85;;;11.80;94.80;;;;;;5032294;28;20026;-76
2020/12/23 05:13:31;;;;;;;0.38;0.38;;;11.90;94.90;;;;;;5032854;28;20075;-75
2020/12/23 05:15:57;;;;;;;1.00;0.82;;;11.80;94.90;;;;;;5014467;28;20372;-75
2020/12/23 05:18:31;;;;;;;0.50;0.40;;;11.90;94.90;;;;;;5014891;28;20025;-76
2020/12/23 05:20:57;;;;;;;0.30;0.30;;;11.90;94.90;;;;;;5032141;28;20021;-75
2020/12/23 05:23:23;;;;;;;2.55;0.55;;;11.90;94.90;;;;;;5014873;28;20381;-76
2020/12/23 05:25:49;;;;;;;2.28;0.75;;;11.90;94.90;;;;;;5032754;28;20091;-76
2020/12/23 05:28:16;;;;;;;3.92;0.90;;;11.80;94.90;;;;;;5014663;28;20057;-76
2020/12/23 05:30:43;;;;;;;2.50;0.80;;;11.80;95.00;;;;;;5014878;28;20033;-76
2020/12/23 05:33:11;;;;;;;3.28;1.15;;;11.80;95.00;;;;;;5031882;28;20060;-76
2020/12/23 05:35:37;;;;;;;0.28;0.28;;;11.80;95.00;;;;;;5032385;28;20087;-77
2020/12/23 05:38:03;;;;;;;2.92;0.40;;;11.80;95.00;;;;;;5014067;28;20049;-75
2020/12/23 05:40:30;;;;;;;0.45;0.45;;;11.80;95.00;;;;;;5014585;28;20438;-76
2020/12/23 05:43:01;;;;;;;1.10;0.55;;;11.80;95.00;;;;;;5031693;28;20033;-75
2020/12/23 05:45:27;;;;;;;;;;;11.80;95.00;;;;;;5032293;28;20025;-76
2020/12/23 05:47:53;;;;;;;1.45;0.43;;;11.80;95.10;;;;;;5031758;28;19905;-79
2020/12/23 05:50:19;;;;;;;0.68;0.35;;;11.80;95.10;;;;;;5032220;28;20026;-76
2020/12/23 05:52:53;;;;;;;0.93;0.30;;;11.80;95.00;;;;;;5032101;28;20029;-76
2020/12/23 05:55:19;;;;;;;0.47;0.47;;;11.90;95.00;;;;;;5031856;28;20029;-76
2020/12/23 05:57:45;;;;;;;0.38;0.38;;;11.80;95.30;;;;;;5014385;28;20112;-75
2020/12/23 06:00:12;;;;;;;1.40;0.50;;;11.80;95.10;;;;;;5031145;28;20068;-75
2020/12/23 06:03:10;;;;;;;0.60;0.50;;;11.80;95.10;;;;;;5031937;28;20108;-75
2020/12/23 06:05:43;;;;;;;0.28;0.28;;;11.80;95.00;;;;;;5013060;28;20464;-75
2020/12/23 06:08:09;;;;;;;0.63;0.30;;;11.80;95.10;;;;;;5031113;28;20049;-74
2020/12/23 06:10:36;;;;;;;0.40;0.40;;;11.80;95.10;;;;;;5014269;28;20067;-76
2020/12/23 06:13:12;;;;;;;0.80;0.40;;;11.80;95.10;;;;;;5013567;28;20421;-75
2020/12/23 06:15:41;;;;;;;1.13;0.43;;;11.80;95.10;;;;;;5014175;28;20149;-75
2020/12/23 06:18:15;;;;;;;0.43;0.30;;;11.90;95.20;;;;;;5031154;28;20036;-75
2020/12/23 06:20:44;;;;;;;0.85;0.57;;;11.90;95.20;;;;;;5014136;28;20052;-76
2020/12/23 06:23:17;;;;;;;1.17;0.40;;;11.90;95.20;;;;;;5031172;28;20021;-76
2020/12/23 06:25:46;;;;;;;1.13;0.63;;;11.90;95.20;;;;;;5031864;28;20327;-76
2020/12/23 06:28:16;;;;;;;0.98;0.60;;;11.90;95.20;;;;;;5013093;28;20026;-75
2020/12/23 06:30:42;;;;;;;1.30;0.30;;;11.90;95.20;;;;;;5032211;28;20036;-75
2020/12/23 06:33:08;;;;;;;1.77;0.52;;;11.90;95.20;;;;;;5030992;28;20028;-75
2020/12/23 06:35:34;;;;;;;0.57;0.47;;;11.90;95.10;;;;;;5014074;28;20026;-76
2020/12/23 06:38:19;;;;;;;0.52;0.43;;;11.90;95.10;;;;;;5013449;28;20071;-75
2020/12/23 06:41:00;;;;;;;1.25;0.57;;;12.00;95.10;;;;;;5013936;28;20358;-75
2020/12/23 06:43:55;;;;;;;0.65;0.40;;;12.00;95.20;;;;;;5031734;28;20051;-75
2020/12/23 06:46:20;;;;;;;0.55;0.47;;;11.90;95.10;;;;;;5013198;28;20037;-75
2020/12/23 06:48:46;;;;;;;0.50;0.50;;;11.90;95.20;;;;;;5031256;28;20024;-76
2020/12/23 06:51:38;;;;;;;0.28;0.28;;;11.90;95.20;;;;;;5030894;28;20056;-75
2020/12/23 06:54:04;;;;;;;0.20;0.20;;;12.00;95.20;;;;;;5013171;28;20017;-75
2020/12/23 06:56:46;;;;;;;0.20;0.20;;;12.00;95.20;;;;;;5031807;28;20346;-76
2020/12/23 06:59:45;;;;;;;0.80;0.52;;;12.00;95.20;;;;;;5012934;28;20021;-77
2020/12/23 07:02:11;;;;;;;0.30;0.30;;;12.00;95.20;;;;;;5013220;28;20112;-77
2020/12/23 07:04:47;;;;;;;0.35;0.20;;;12.00;95.30;;;;;;5031343;28;20034;-77
2020/12/23 07:07:34;;;;;;;0.20;0.20;;;12.00;95.20;;;;;;5026721;28;20048;-77
2020/12/23 07:10:09;;;;;;;0.30;0.30;;;12.00;95.20;;;;;;5049293;28;20372;-76
2020/12/23 07:12:37;;;;;;;0.75;0.40;;;12.00;95.20;;;;;;5051508;28;20020;-76
2020/12/23 07:15:13;;;;;;;0.25;0.25;;;12.00;95.20;;;;;;5050576;28;20154;-76
2020/12/23 07:17:40;;;;;;;0.20;0.20;;;12.10;95.20;;;;;;5051277;28;20028;-76
2020/12/23 07:20:07;;;;;;;0.98;0.40;;;12.10;95.20;;;;;;5050547;28;20029;-76
2020/12/23 07:22:34;;;;;;;1.48;0.63;;;12.10;95.20;;;;;;5051065;28;20029;-75
2020/12/23 07:25:00;;;;;;;1.73;0.70;;;12.10;95.30;;;;;;5050525;28;20465;-79
2020/12/23 07:27:27;;;;;;;0.50;0.40;;;12.10;95.30;;;;;;5049408;28;20087;-77
2020/12/23 07:30:05;;;;;;;1.40;0.80;;;12.20;95.30;;;;;;5052954;28;20021;-76
2020/12/23 07:32:31;;;;;;;0.75;0.43;;;12.20;95.30;;;;;;5053433;28;20021;-76
2020/12/23 07:34:59;;;;;;;3.22;1.20;;;12.20;95.20;;;;;;5053263;28;20124;-77
2020/12/23 07:37:39;;;;;;;5.97;2.00;;;12.20;95.20;;;;;;5052710;28;20066;-76
2020/12/23 07:40:15;;;;;;;4.10;1.65;;;12.20;95.30;;;;;;5052560;28;20104;-76
2020/12/23 07:42:48;;;;;;;6.40;2.33;;;12.20;95.40;;;;;;5053404;28;20017;-77
2020/12/23 07:45:15;;;;;;;6.10;1.70;;;12.30;95.40;;;;;;5052514;28;20079;-76
2020/12/23 07:47:51;;;;;;;3.88;1.60;;;12.30;95.40;;;;;;5052990;28;20099;-76
2020/12/23 07:50:17;;;;;;;3.70;1.55;;;12.30;95.40;;;;;;5053656;28;20025;-75
2020/12/23 07:52:42;;;;;;;2.65;1.30;;;12.30;95.40;;;;;;5054145;28;20074;-76
2020/12/23 07:55:12;;;;;;;4.05;1.65;;;12.30;95.40;;;;;;5053796;28;20105;-75
2020/12/23 07:57:39;;;;;;;4.88;1.92;;;12.30;95.40;;;;;;5053788;28;20166;-75
2020/12/23 08:00:06;;;;;;;3.95;1.70;;;12.40;95.50;;;;;;5052164;28;20021;-76
2020/12/23 08:02:33;;;;;;;5.53;1.67;;;12.40;95.50;;;;;;5053766;28;20392;-76
2020/12/23 08:04:59;;;;;;;3.70;1.40;;;12.40;95.50;;;;;;5053980;28;20033;-75
2020/12/23 08:07:25;;;;;;;2.42;1.15;;;12.40;95.50;;;;;;5051944;28;20130;-76
2020/12/23 08:09:51;;;;;;;3.83;1.60;;;12.40;95.50;;;;;;5052434;28;20055;-76
2020/12/23 08:12:21;;;;;;;3.38;1.45;;;12.40;95.50;;;;;;5053321;28;20120;-76
2020/12/23 08:14:47;;;;;;;4.57;1.58;;;12.50;95.50;;;;;;5052137;28;20032;-75
2020/12/23 08:17:22;;;;;;;5.47;1.67;;;12.40;95.50;;;;;;5051772;28;20028;-76
2020/12/23 08:20:01;;;;;;;2.88;1.00;;;12.50;95.50;;;;;;5052392;28;20040;-76
2020/12/23 08:22:27;;;;;;;3.90;1.27;;;12.50;95.40;;;;;;5053133;28;20029;-75
2020/12/23 08:25:00;;;;;;;4.28;1.40;;;12.50;95.50;;;;;;5052336;28;20056;-75
2020/12/23 08:27:27;;;;;;;2.30;1.30;;;12.50;95.50;;;;;;5051640;28;20029;-75
2020/12/23 08:29:53;;;;;;;2.80;1.45;;;12.50;95.50;;;;;;5053505;28;20032;-74
2020/12/23 08:32:24;;;;;;;2.35;1.38;;;12.50;95.50;;;;;;5052850;28;20029;-74
2020/12/23 08:34:53;;;;;;;3.83;1.20;;;12.50;95.40;;;;;;5061414;28;20033;-74
2020/12/23 08:37:22;;;;;;;3.38;1.30;;;12.50;95.50;;;;;;5052758;28;20017;-73
2020/12/23 08:39:58;;;;;;;3.95;1.42;;;12.50;95.50;;;;;;5059173;28;20035;-75
2020/12/23 08:42:25;;;;;;;6.07;2.00;;;12.50;95.50;;;;;;5060907;28;20424;-74
2020/12/23 08:44:55;;;;;;;6.60;1.38;;;12.50;95.50;;;;;;5060388;28;20113;-74
2020/12/23 08:47:24;;;;;;;3.77;1.87;;;12.50;95.50;;;;;;5061187;28;20025;-75
2020/12/23 08:49:52;;;;;;;5.00;1.75;;;12.50;95.50;;;;;;5064214;28;20255;-76
2020/12/23 08:52:22;;;;;;;4.22;1.48;;;12.50;95.60;;;;;;5072506;28;20032;-75
2020/12/23 08:54:49;;;;;;;3.67;1.73;;;12.50;95.50;;;;;;5071758;28;20048;-75
2020/12/23 08:57:16;;;;;;;2.17;1.15;;;12.50;95.60;;;;;;5070997;28;20460;-75
2020/12/23 08:59:42;;;;;;;3.25;1.95;;;12.50;95.60;;;;;;5071517;28;20024;-76
2020/12/23 09:02:15;;;;;;;4.20;1.30;;;12.50;95.50;;;;;;5072440;28;20028;-76
2020/12/23 09:04:41;;;;;;;3.10;1.23;;;12.50;95.50;;;;;;5071104;28;20043;-75
2020/12/23 09:07:07;;;;;;;3.58;1.55;;;12.50;95.60;;;;;;5070728;28;20082;-81
2020/12/23 09:09:34;;;;;;;3.25;1.35;;;12.50;95.60;;;;;;5072828;28;20459;-75
2020/12/23 09:12:02;;;;;;;5.30;1.67;;;12.60;95.60;;;;;;5071532;28;20385;-74
2020/12/23 09:14:36;;;;;;;3.42;1.48;;;12.50;95.60;;;;;;5072083;28;20016;-74
2020/12/23 09:17:18;;;;;;;2.85;1.15;;;12.60;95.90;;;;;;5072625;28;20056;-75
2020/12/23 09:20:01;;;;;;;5.65;2.08;;;12.60;95.60;;;;;;5071300;28;20062;-74
2020/12/23 09:22:38;;;;;;;3.50;1.40;;;12.60;95.60;;;;;;5070665;28;20523;-75
2020/12/23 09:25:27;;;;;;;4.05;1.10;;;12.60;95.60;;;;;;5071055;28;20116;-75
2020/12/23 09:28:10;;;;;;;3.03;1.30;;;12.60;95.60;;;;;;5072605;28;20531;-75
2020/12/23 09:30:36;;;;;;;3.95;1.73;;;12.60;95.60;;;;;;5072006;28;20028;-76
2020/12/23 09:33:02;;;;;;;4.55;1.60;;;12.60;95.60;;;;;;5071068;28;20020;-75
2020/12/23 09:35:28;;;;;;;5.15;1.70;;;12.60;95.60;;;;;;5071671;28;20024;-74
2020/12/23 09:38:13;;;;;;;5.68;1.52;;;12.60;95.70;;;;;;5072167;28;20035;-76
2020/12/23 09:40:44;;;;;;;3.22;1.38;;;12.60;95.70;;;;;;5070825;28;20051;-75
2020/12/23 09:43:12;;;;;;;1.60;0.88;;;12.60;95.70;;;;;;5072355;28;20031;-75
2020/12/23 09:45:38;;;;;;;1.75;0.88;;;12.60;95.70;;;;;;5072157;28;20032;-75
2020/12/23 09:48:04;;;;;;;2.28;1.08;;;12.60;95.70;;;;;;5072124;28;20024;-75
2020/12/23 09:50:30;;;;;;;3.05;1.00;;;12.60;95.60;;;;;;5071281;28;20094;-76
2020/12/23 09:52:55;;;;;;;2.47;0.68;;;12.60;95.60;;;;;;5070422;28;20134;-74
2020/12/23 09:55:22;;;;;;;2.35;0.70;;;12.60;95.60;;;;;;5071397;28;20472;-74
2020/12/23 09:57:47;;;;;;;0.65;0.50;;;12.60;95.60;;;;;;5070653;28;20021;-75
2020/12/23 10:00:13;;;;;;;2.40;1.05;;;12.70;95.60;;;;;;5071004;28;20031;-75
2020/12/23 10:02:39;;;;;;;0.73;0.52;;;12.70;95.60;;;;;;5072003;28;20372;-75
2020/12/23 10:05:04;;;;;;;1.60;0.63;;;12.70;95.60;;;;;;5070299;28;20052;-75
2020/12/23 10:07:30;;;;;;;1.25;0.57;;;12.70;95.50;;;;;;5060110;28;20473;-75
2020/12/23 10:09:56;;;;;;;1.67;0.50;;;12.70;95.60;;;;;;5051681;28;20362;-75
2020/12/23 10:12:22;;;;;;;1.02;0.60;;;12.70;95.50;;;;;;5033125;28;20087;-74
2020/12/23 10:14:51;;;;;;;1.02;0.55;;;12.70;95.50;;;;;;5033732;28;20021;-76
2020/12/23 10:17:18;;;;;;;1.35;0.60;;;12.70;95.40;;;;;;5051070;28;20021;-74
2020/12/23 10:19:44;;;;;;;1.25;0.55;;;12.80;95.50;;;;;;5051649;28;20035;-76
2020/12/23 10:22:10;;;;;;;1.05;0.80;;;12.80;95.40;;;;;;5051943;28;20096;-75
2020/12/23 10:24:36;;;;;;;1.27;0.85;;;12.80;95.40;;;;;;5033057;28;20514;-74
2020/12/23 10:27:01;;;;;;;0.98;0.47;;;12.80;95.40;;;;;;5051450;28;20108;-78
2020/12/23 10:29:27;;;;;;;0.55;0.35;;;12.80;95.40;;;;;;5051184;28;20029;-77
2020/12/23 10:31:53;;;;;;;0.30;0.30;;;12.80;95.40;;;;;;5051384;28;20029;-78
2020/12/23 10:34:19;;;;;;;1.85;0.50;;;12.80;95.50;;;;;;5032810;28;20024;-76
2020/12/23 10:36:48;;;;;;;1.42;0.40;;;12.80;95.40;;;;;;5051809;28;20370;-77
2020/12/23 10:39:18;;;;;;;0.60;0.43;;;12.80;95.40;;;;;;5051593;28;20123;-76
2020/12/23 10:41:45;;;;;;;1.33;0.50;;;12.80;95.40;;;;;;5033668;28;20431;-75
2020/12/23 10:44:11;;;;;;;0.38;0.30;;;12.80;95.40;;;;;;5051471;28;20108;-75
2020/12/23 10:46:37;;;;;;;0.80;0.43;;;12.90;95.40;;;;;;5050961;28;20047;-76
2020/12/23 10:49:05;;;;;;;0.40;0.40;;;12.90;95.40;;;;;;5051481;28;20025;-76
2020/12/23 10:51:30;;;;;;;0.32;0.30;;;12.90;95.40;;;;;;5033034;28;20077;-79
2020/12/23 10:53:56;;;;;;;1.02;0.50;;;12.90;95.40;;;;;;5033272;28;20429;-75
2020/12/23 10:56:22;;;;;;;0.80;0.40;;;12.90;95.30;;;;;;5032977;28;20032;-76
2020/12/23 10:58:47;;;;;;;1.95;0.45;;;12.90;95.30;;;;;;5033534;28;20346;-76
2020/12/23 11:01:20;;;;;;;3.92;1.05;;;12.90;95.30;;;;;;5051414;28;20047;-73
2020/12/23 11:03:46;;;;;;;0.60;0.55;;;12.90;95.30;;;;;;5053798;28;20019;-74
2020/12/23 11:06:14;;;;;;;1.30;0.68;;;12.90;95.30;;;;;;5036731;28;20021;-76
2020/12/23 11:08:39;;;;;;;1.10;0.43;;;12.90;95.40;;;;;;5054636;28;20021;-74
2020/12/23 11:11:05;;;;;;;1.48;0.50;;;12.90;95.40;;;;;;5055033;28;20530;-75
2020/12/23 11:13:31;;;;;;;0.35;0.30;;;12.90;95.40;;;;;;5054408;28;20021;-75
2020/12/23 11:15:56;;;;;;;0.30;0.28;;;12.90;95.40;;;;;;5037020;28;20120;-75
2020/12/23 11:18:22;;;;;;;0.60;0.40;;;12.90;95.40;;;;;;5054435;28;20081;-77
2020/12/23 11:20:47;;;;;;;0.30;0.30;;;12.90;95.40;;;;;;5054767;28;20036;-75
2020/12/23 11:23:24;;;;;;;0.30;0.30;;;12.90;95.40;;;;;;5055218;28;20073;-75
2020/12/23 11:25:50;;;;;;;0.32;0.20;;;12.90;95.40;;;;;;5054710;28;20495;-75
2020/12/23 11:28:16;;;;;;;0.35;0.20;;;12.90;95.40;;;;;;5054834;28;20024;-78
2020/12/23 11:30:41;;;;;;;0.32;0.20;;;12.90;95.40;;;;;;5050706;28;20033;-77
2020/12/23 11:33:07;;;;;;;0.20;0.20;;;12.90;95.40;;;;;;5054467;28;20025;-76
2020/12/23 11:35:33;;;;;;;0.20;0.20;;;12.90;95.50;;;;;;5054056;28;20053;-75
2020/12/23 11:37:58;;;;;;;0.20;0.20;;;12.90;95.50;;;;;;5055045;28;20040;-74
2020/12/23 11:40:24;;;;;;;0.20;0.20;;;12.90;95.50;;;;;;5053700;28;20139;-75
2020/12/23 11:42:50;;;;;;;0.17;0.17;;;12.90;95.50;;;;;;5054319;28;20021;-74
2020/12/23 11:45:15;;;;;;;0.22;0.20;;;12.90;95.40;;;;;;5036309;28;20032;-75
2020/12/23 11:47:41;;;;;;;0.10;0.10;;;12.90;95.50;;;;;;5053378;28;20025;-77
2020/12/23 11:50:07;;;;;;;0.30;0.20;;;12.90;95.50;;;;;;5040866;28;20032;-75
2020/12/23 11:52:32;;;;;;;0.25;0.25;;;12.90;95.50;;;;;;5015882;28;20385;-76
2020/12/23 11:54:58;;;;;;;0.20;0.20;;;12.80;95.60;;;;;;5033594;28;20029;-76
2020/12/23 11:57:24;;;;;;;0.10;0.10;;;12.80;95.60;;;;;;5026460;28;20377;-75
2020/12/23 11:59:49;;;;;;;0.30;0.30;;;12.80;95.60;;;;;;5016540;28;20401;-75
2020/12/23 12:02:15;;;;;;;0.30;0.30;;;12.80;95.60;;;;;;5026540;28;20424;-77
2020/12/23 12:04:41;;;;;;;0.30;0.30;;;12.90;95.60;;;;;;5040834;28;20381;-77
2020/12/23 12:07:07;;;;;;;0.35;0.30;;;12.90;95.60;;;;;;5036311;28;20095;-76
2020/12/23 12:09:33;;;;;;;1.60;0.73;;;12.90;95.50;;;;;;5062619;28;20477;-76
2020/12/23 12:11:58;;;;;;;1.85;1.05;;;12.80;95.50;;;;;;5070324;28;20105;-76
2020/12/23 12:14:24;;;;;;;2.45;0.95;;;12.80;95.50;;;;;;5061324;28;20021;-74
2020/12/23 12:16:50;;;;;;;1.48;0.80;;;12.80;95.50;;;;;;5072413;28;20017;-77
2020/12/23 12:19:16;;;;;;;1.77;0.85;;;12.80;95.70;;;;;;5072271;28;20078;-76
2020/12/23 12:21:41;;;;;;;1.00;0.70;;;12.80;95.60;;;;;;5073302;28;20028;-78
2020/12/23 12:24:07;;;;;;;1.70;0.85;;;12.80;95.60;;;;;;5072563;28;20050;-78
2020/12/23 12:26:33;;;;;;;1.20;0.65;;;12.80;95.60;;;;;;5073139;28;20029;-76
2020/12/23 12:29:00;;;;;;;0.93;0.50;;;12.70;95.60;;;;;;5073401;28;20024;-76
2020/12/23 12:31:27;;;;;;;0.98;0.88;;;12.80;95.60;;;;;;5073094;28;20024;-77
2020/12/23 12:33:53;;;;;;;0.93;0.60;;;12.80;95.60;;;;;;5072379;28;20025;-76
2020/12/23 12:36:20;;;;;;;1.23;0.68;;;12.80;95.60;;;;;;5072060;28;20468;-77
2020/12/23 12:38:46;;;;;;;1.75;0.50;;;12.80;95.60;;;;;;5071662;28;20187;-77
2020/12/23 12:41:12;;;;;;;1.40;0.70;;;12.80;95.60;;;;;;5072051;28;20052;-76
2020/12/23 12:43:38;;;;;;;1.63;0.60;;;12.90;95.60;;;;;;5071267;28;20029;-78
2020/12/23 12:46:07;;;;;;;1.98;0.65;;;12.80;95.60;;;;;;5073236;28;20040;-77
2020/12/23 12:48:33;;;;;;;0.98;0.50;;;12.80;95.60;;;;;;5073077;28;20019;-77
2020/12/23 12:50:59;;;;;;;0.40;0.40;;;12.80;95.60;;;;;;5072002;28;20016;-77